Time;durP1;ratioP1;P1;durP2;ratioP2;P2;SDS_P1;SDS_P2;PMS_P1;PMS_P2;Temp;Humidity;BMP_temperature;BMP_pressure;BME280_temperature;BME280_humidity;BME280_pressure;Samples;Min_cycle;Max_cycle;Signal;HPM_P1;HPM_P2
2022/09/27 00:01:45;;;;;;;2.63;1.17;;;;;;;17.39;47.37;99328.88;5046484;27;99119;-68
2022/09/27 00:04:12;;;;;;;2.47;1.00;;;;;;;17.39;47.57;99328.06;5052075;27;97256;-68
2022/09/27 00:06:38;;;;;;;3.00;1.27;;;;;;;17.39;47.45;99322.72;5050750;27;96900;-68
2022/09/27 00:09:06;;;;;;;3.67;1.30;;;;;;;17.52;47.19;99310.00;5048907;27;99386;-68
2022/09/27 00:11:35;;;;;;;3.10;1.40;;;;;;;17.62;46.98;99315.41;5047601;27;98940;-68
2022/09/27 00:14:04;;;;;;;2.22;1.30;;;;;;;17.66;46.71;99306.16;5052445;27;96812;-69
2022/09/27 00:16:36;;;;;;;6.35;1.77;;;;;;;17.58;47.03;99293.44;5050218;27;96739;-68
2022/09/27 00:19:08;;;;;;;5.35;1.30;;;;;;;17.78;46.48;99297.94;5049564;27;96797;-68
2022/09/27 00:21:35;;;;;;;5.38;1.17;;;;;;;17.83;46.23;99287.69;5051753;27;99905;-68
2022/09/27 00:24:02;;;;;;;3.90;1.35;;;;;;;17.67;46.79;99290.00;5049961;27;97021;-68
2022/09/27 00:26:29;;;;;;;2.15;1.35;;;;;;;17.50;47.03;99287.94;5048130;27;96843;-69
2022/09/27 00:28:55;;;;;;;2.03;1.23;;;;;;;17.63;46.78;99291.25;5050054;27;99071;-69
2022/09/27 00:31:24;;;;;;;4.18;1.27;;;;;;;17.61;46.89;99290.53;5044874;27;99012;-68
2022/09/27 00:33:53;;;;;;;3.15;1.20;;;;;;;17.48;47.35;99292.53;5050273;27;96690;-68
2022/09/27 00:36:22;;;;;;;4.80;1.50;;;;;;;17.49;47.36;99288.91;5049228;27;98808;-69
2022/09/27 00:38:49;;;;;;;1.50;1.10;;;;;;;17.47;47.57;99293.50;5048708;27;98893;-70
2022/09/27 00:41:18;;;;;;;4.95;1.40;;;;;;;17.44;47.54;99281.28;5044456;27;98986;-67
2022/09/27 00:43:48;;;;;;;3.30;1.20;;;;;;;17.45;47.75;99280.31;5041274;27;97987;-68
2022/09/27 00:46:23;;;;;;;2.75;1.20;;;;;;;17.55;47.47;99275.00;5042356;27;97816;-69
2022/09/27 00:48:59;;;;;;;3.45;1.30;;;;;;;17.65;47.35;99273.28;5057332;27;97663;-68
2022/09/27 00:51:26;;;;;;;2.72;1.05;;;;;;;17.51;47.67;99268.25;5055118;27;99277;-69
2022/09/27 00:53:56;;;;;;;2.75;1.42;;;;;;;17.62;47.36;99264.66;5046460;27;96764;-69
2022/09/27 00:56:27;;;;;;;2.30;1.30;;;;;;;17.54;47.51;99262.63;5046182;27;96784;-68
2022/09/27 00:58:59;;;;;;;2.78;1.13;;;;;;;17.53;47.62;99258.25;5048001;27;99288;-69
2022/09/27 01:01:25;;;;;;;2.92;1.45;;;;;;;17.68;47.05;99251.63;5048914;27;99403;-68
2022/09/27 01:04:05;;;;;;;2.67;1.40;;;;;;;17.60;47.33;99248.72;5049084;27;96802;-68
2022/09/27 01:06:31;;;;;;;2.85;1.10;;;;;;;17.40;47.66;99246.97;5045264;27;96911;-68
2022/09/27 01:08:58;;;;;;;1.15;1.00;;;;;;;17.41;47.80;99251.31;5049243;27;98930;-68
2022/09/27 01:11:36;;;;;;;2.10;1.20;;;;;;;17.57;47.35;99234.81;5051121;27;99142;-68
2022/09/27 01:14:24;;;;;;;2.25;1.33;;;;;;;17.44;47.73;99241.25;5045825;27;97162;-68
2022/09/27 01:17:02;;;;;;;1.90;1.05;;;;;;;17.28;47.95;99234.69;5049455;27;96976;-68
2022/09/27 01:19:58;;;;;;;2.05;1.10;;;;;;;17.43;47.47;99228.00;5043134;27;98961;-68
2022/09/27 01:22:30;;;;;;;2.80;1.20;;;;;;;17.49;47.15;99232.81;5046298;27;98943;-68
2022/09/27 01:25:12;;;;;;;2.25;1.23;;;;;;;17.41;47.44;99229.97;5048572;27;96839;-68
2022/09/27 01:28:19;;;;;;;1.98;1.10;;;;;;;17.46;47.20;99217.91;5050381;27;96682;-68
2022/09/27 01:30:50;;;;;;;1.90;0.90;;;;;;;17.27;47.60;99217.81;4964109;28;99177;-69
2022/09/27 01:33:43;;;;;;;2.33;1.02;;;;;;;17.43;47.05;99220.84;4963448;28;99341;-69
2022/09/27 01:36:25;;;;;;;1.90;0.65;;;;;;;17.33;47.35;99213.75;5023026;27;97252;-68
2022/09/27 01:39:03;;;;;;;4.07;1.38;;;;;;;17.49;47.12;99211.44;5049506;27;96794;-69
2022/09/27 01:41:38;;;;;;;2.50;0.90;;;;;;;17.57;46.96;99214.31;5048551;27;99259;-68
2022/09/27 01:44:10;;;;;;;1.13;1.00;;;;;;;17.54;46.83;99209.22;5051248;27;99306;-68
2022/09/27 01:46:43;;;;;;;5.32;1.10;;;;;;;17.50;46.81;99205.13;5048476;27;98666;-69
2022/09/27 01:49:15;;;;;;;2.67;1.05;;;;;;;17.30;47.43;99201.53;5049505;27;96861;-69
2022/09/27 01:51:45;;;;;;;2.55;1.05;;;;;;;17.51;47.04;99201.50;5051776;27;100216;-68
2022/09/27 01:54:18;;;;;;;3.80;1.20;;;;;;;17.59;46.83;99198.97;5049952;27;100893;-68
2022/09/27 01:56:51;;;;;;;2.60;1.10;;;;;;;17.73;46.36;99192.44;5054227;27;96955;-70
2022/09/27 01:59:28;;;;;;;2.10;1.10;;;;;;;17.69;46.61;99180.34;5051195;27;96816;-68
2022/09/27 02:01:59;;;;;;;3.45;1.42;;;;;;;17.75;46.40;99182.47;5050068;27;99421;-69
2022/09/27 02:04:32;;;;;;;2.17;1.05;;;;;;;17.70;46.49;99174.03;5052571;27;98990;-68
2022/09/27 02:07:02;;;;;;;1.40;1.10;;;;;;;17.72;46.16;99175.56;5051943;27;96917;-68
2022/09/27 02:09:38;;;;;;;2.33;1.00;;;;;;;17.65;46.43;99168.25;5052151;27;96786;-68
2022/09/27 02:12:06;;;;;;;;;;;;;;;17.61;46.69;99159.66;5051035;27;99529;-68
2022/09/27 02:14:41;;;;;;;1.00;0.90;;;;;;;17.58;46.70;99156.41;5055237;27;97690;-68
2022/09/27 02:17:21;;;;;;;2.95;0.85;;;;;;;17.90;45.63;99151.69;5050929;27;97828;-68
2022/09/27 02:19:54;;;;;;;2.42;1.10;;;;;;;17.73;46.11;99150.53;5049671;27;96802;-69
2022/09/27 02:22:31;;;;;;;2.28;1.15;;;;;;;17.73;46.17;99144.34;5050227;27;98295;-68
2022/09/27 02:25:02;;;;;;;2.35;0.85;;;;;;;17.81;45.96;99148.03;5051828;27;99102;-68
2022/09/27 02:27:31;;;;;;;1.02;0.80;;;;;;;17.74;46.29;99144.22;5052853;27;96757;-68
2022/09/27 02:30:03;;;;;;;1.20;1.10;;;;;;;17.82;46.01;99138.19;5050910;27;96938;-68
2022/09/27 02:32:31;;;;;;;1.35;0.82;;;;;;;17.80;46.08;99138.31;5050279;27;99002;-69
2022/09/27 02:35:02;;;;;;;2.85;1.13;;;;;;;17.69;46.07;99134.94;5054191;27;98924;-68
2022/09/27 02:37:29;;;;;;;1.85;0.90;;;;;;;17.67;46.08;99132.38;5053445;27;96731;-67
2022/09/27 02:39:56;;;;;;;2.83;1.10;;;;;;;17.81;46.12;99125.81;5052285;27;97062;-68
2022/09/27 02:42:22;;;;;;;0.73;0.60;;;;;;;17.84;45.58;99131.72;5051531;27;98861;-68
2022/09/27 02:44:49;;;;;;;2.45;1.10;;;;;;;17.90;45.64;99128.50;5052521;27;96898;-68
2022/09/27 02:47:46;;;;;;;2.20;1.20;;;;;;;17.63;46.35;99120.31;5043680;27;96966;-68
2022/09/27 02:50:36;;;;;;;1.17;1.05;;;;;;;17.79;46.04;99111.72;5054194;27;97099;-68
2022/09/27 02:53:07;;;;;;;4.20;0.98;;;;;;;17.74;45.81;99122.00;5051691;27;99272;-68
2022/09/27 02:55:45;;;;;;;1.42;1.00;;;;;;;17.99;45.44;99117.94;5053781;27;97554;-67
2022/09/27 02:58:20;;;;;;;2.92;0.93;;;;;;;17.99;45.51;99116.09;5051712;27;98577;-68
2022/09/27 03:00:52;;;;;;;1.80;1.02;;;;;;;17.84;45.96;99118.38;5052772;27;96873;-68
2022/09/27 03:03:27;;;;;;;0.82;0.73;;;;;;;17.78;45.89;99105.56;5050799;27;97880;-68
2022/09/27 03:06:01;;;;;;;1.25;0.85;;;;;;;17.86;45.81;99107.53;5051320;27;98973;-69
2022/09/27 03:08:29;;;;;;;1.80;1.10;;;;;;;17.74;45.88;99108.63;5051458;27;97131;-68
2022/09/27 03:10:56;;;;;;;1.23;0.90;;;;;;;17.61;46.44;99102.72;5052070;27;98476;-68
2022/09/27 03:13:22;;;;;;;2.30;1.20;;;;;;;17.72;45.95;99100.75;5051752;27;99329;-68
2022/09/27 03:15:49;;;;;;;3.97;1.23;;;;;;;17.87;45.96;99104.72;5050385;27;99374;-70
2022/09/27 03:18:19;;;;;;;1.95;1.23;;;;;;;17.75;46.16;99099.66;5049165;27;96779;-68
2022/09/27 03:20:47;;;;;;;1.75;0.90;;;;;;;17.65;46.49;99099.66;5048704;27;97089;-68
2022/09/27 03:23:13;;;;;;;2.25;0.90;;;;;;;17.73;46.19;99090.91;5054032;27;99218;-69
2022/09/27 03:25:40;;;;;;;2.33;1.23;;;;;;;17.64;46.36;99091.78;5051473;27;100090;-68
2022/09/27 03:28:09;;;;;;;2.65;1.10;;;;;;;17.74;46.19;99088.13;5053173;27;96719;-69
2022/09/27 03:30:37;;;;;;;2.13;1.30;;;;;;;17.65;46.29;99091.63;5052856;27;96896;-68
2022/09/27 03:33:04;;;;;;;1.30;1.00;;;;;;;17.59;46.56;99084.13;5051095;27;98912;-68
2022/09/27 03:35:34;;;;;;;4.00;1.35;;;;;;;17.63;46.39;99082.91;5050278;27;99022;-69
2022/09/27 03:38:02;;;;;;;3.83;1.15;;;;;;;17.83;46.27;99075.75;5051594;27;96818;-68
2022/09/27 03:40:28;;;;;;;2.55;1.10;;;;;;;17.75;46.46;99081.78;5049444;27;97541;-68
2022/09/27 03:42:55;;;;;;;1.08;0.98;;;;;;;17.89;46.14;99081.38;5049525;27;99194;-68
2022/09/27 03:45:22;;;;;;;1.45;1.13;;;;;;;17.78;46.69;99083.34;5051934;27;99091;-68
2022/09/27 03:47:53;;;;;;;3.72;1.23;;;;;;;17.82;46.82;99080.25;5051476;27;96808;-68
2022/09/27 03:50:20;;;;;;;2.58;1.58;;;;;;;17.68;47.29;99078.00;5053221;27;97183;-69
2022/09/27 03:52:47;;;;;;;2.88;1.40;;;;;;;17.78;47.47;99078.00;5051036;27;99379;-69
2022/09/27 03:55:15;;;;;;;2.30;1.50;;;;;;;17.89;47.00;99076.03;5044590;27;100818;-68
2022/09/27 03:57:45;;;;;;;4.65;1.38;;;;;;;17.47;47.92;99074.56;5048020;27;97190;-69
2022/09/27 04:00:13;;;;;;;2.08;1.60;;;;;;;17.51;48.21;99070.63;5052121;27;96905;-70
2022/09/27 04:02:42;;;;;;;2.80;1.50;;;;;;;17.46;48.52;99065.69;5051021;27;98849;-71
2022/09/27 04:05:09;;;;;;;1.92;1.50;;;;;;;17.50;48.74;99063.59;5048110;27;101949;-68
2022/09/27 04:07:36;;;;;;;2.47;1.52;;;;;;;17.60;48.57;99060.94;5051898;27;96745;-68
2022/09/27 04:10:03;;;;;;;2.53;1.40;;;;;;;17.67;48.59;99059.41;5049281;27;98728;-69
2022/09/27 04:12:31;;;;;;;4.63;1.48;;;;;;;17.74;48.82;99058.72;5049592;27;98929;-68
2022/09/27 04:14:58;;;;;;;3.65;1.30;;;;;;;17.81;48.68;99057.19;5051010;27;98779;-69
2022/09/27 04:17:26;;;;;;;5.43;1.50;;;;;;;17.60;49.23;99061.78;5048189;27;97918;-71
2022/09/27 04:19:54;;;;;;;2.53;1.55;;;;;;;17.35;49.63;99052.47;5049293;27;96784;-69
2022/09/27 04:22:20;;;;;;;2.15;1.27;;;;;;;17.51;49.75;99051.94;5050633;27;99273;-69
2022/09/27 04:24:47;;;;;;;2.17;1.10;;;;;;;17.47;49.84;99053.19;5047729;27;98997;-69
2022/09/27 04:27:13;;;;;;;2.35;1.60;;;;;;;17.44;49.75;99046.31;5048540;27;96800;-69
2022/09/27 04:29:44;;;;;;;2.65;1.33;;;;;;;17.26;50.28;99061.31;5046212;27;96841;-68
2022/09/27 04:32:11;;;;;;;2.42;1.42;;;;;;;17.30;50.36;99044.03;5044300;27;99128;-68
2022/09/27 04:37:22;;;;;;;2.05;1.33;;;;;;;17.38;50.77;99054.88;5043971;27;97134;-68
2022/09/27 04:39:48;;;;;;;3.60;1.05;;;;;;;17.25;51.39;99059.63;5051651;27;98574;-68
2022/09/27 04:42:15;;;;;;;3.83;1.50;;;;;;;17.37;51.19;99058.53;5050132;27;99559;-68
2022/09/27 04:44:43;;;;;;;1.90;1.52;;;;;;;17.14;52.08;99057.06;5049587;27;99560;-68
2022/09/27 04:47:10;;;;;;;4.85;3.35;;;;;;;17.08;52.52;99057.59;5046465;27;96835;-68
2022/09/27 04:49:37;;;;;;;2.42;1.50;;;;;;;17.01;52.95;99065.31;5042799;27;97173;-68
2022/09/27 04:52:05;;;;;;;1.27;1.10;;;;;;;17.10;52.96;99055.66;5049089;27;99090;-68
2022/09/27 04:54:31;;;;;;;1.20;1.10;;;;;;;17.24;52.60;99055.28;5050965;27;98816;-68
2022/09/27 04:56:58;;;;;;;7.53;2.33;;;;;;;17.10;53.60;99056.50;5049577;27;96925;-68
2022/09/27 04:59:25;;;;;;;4.28;1.42;;;;;;;17.09;53.91;99060.16;5051273;27;96906;-68
2022/09/27 05:01:53;;;;;;;4.40;1.85;;;;;;;17.22;53.70;99061.72;5049109;27;99338;-68
2022/09/27 05:04:20;;;;;;;3.15;1.48;;;;;;;17.25;53.44;99058.78;5043494;27;99288;-68
2022/09/27 05:06:47;;;;;;;1.88;1.48;;;;;;;17.13;53.78;99053.53;5046349;27;96852;-68
2022/09/27 05:09:13;;;;;;;3.25;1.52;;;;;;;17.11;53.93;99055.53;5047015;27;96916;-69
2022/09/27 05:11:40;;;;;;;4.38;1.85;;;;;;;17.14;54.04;99057.91;5050150;27;99102;-68
2022/09/27 05:14:08;;;;;;;3.70;1.85;;;;;;;16.90;54.58;99049.41;5047335;27;98519;-68
2022/09/27 05:16:35;;;;;;;3.72;1.05;;;;;;;16.85;55.21;99053.47;5049258;27;97517;-68
2022/09/27 05:19:04;;;;;;;3.55;1.40;;;;;;;16.85;55.54;99059.66;5050136;27;97031;-69
2022/09/27 05:21:32;;;;;;;3.75;1.58;;;;;;;16.70;55.73;99052.97;5040434;27;101305;-68
2022/09/27 05:23:59;;;;;;;4.72;1.80;;;;;;;16.57;56.24;99053.16;5043979;27;97881;-69
2022/09/27 05:26:28;;;;;;;3.65;1.73;;;;;;;16.45;57.20;99056.91;5050909;27;96934;-67
2022/09/27 05:28:58;;;;;;;3.22;1.98;;;;;;;16.44;57.24;99057.03;5052488;27;97143;-67
2022/09/27 05:31:25;;;;;;;3.75;2.15;;;;;;;16.45;57.30;99058.72;5050458;27;99177;-68
2022/09/27 05:33:51;;;;;;;3.60;1.75;;;;;;;16.44;57.71;99060.53;5051142;27;98918;-69
2022/09/27 05:36:22;;;;;;;3.42;1.60;;;;;;;16.51;57.76;99063.53;5054066;27;96957;-70
2022/09/27 05:38:49;;;;;;;2.92;1.63;;;;;;;16.66;57.17;99064.91;5053192;27;96796;-68
2022/09/27 05:41:15;;;;;;;8.85;1.65;;;;;;;16.46;57.72;99060.41;5049913;27;97665;-68
2022/09/27 05:43:42;;;;;;;2.63;1.60;;;;;;;16.56;57.91;99064.81;5051828;27;97637;-69
2022/09/27 05:46:12;;;;;;;3.55;1.75;;;;;;;16.65;58.02;99071.22;5052745;27;96849;-68
2022/09/27 05:48:41;;;;;;;3.03;1.67;;;;;;;16.51;57.96;99067.03;5046211;27;96870;-68
2022/09/27 05:51:11;;;;;;;33.42;2.78;;;;;;;16.68;57.51;99062.94;5053466;27;99541;-68
2022/09/27 05:53:38;;;;;;;4.53;1.80;;;;;;;16.58;57.98;99057.53;5054219;27;99002;-68
2022/09/27 05:56:05;;;;;;;3.33;1.80;;;;;;;16.71;57.91;99055.53;5053050;27;96784;-69
2022/09/27 05:58:33;;;;;;;2.70;1.90;;;;;;;16.58;58.16;99057.53;5054980;27;97154;-68
2022/09/27 06:00:59;;;;;;;3.42;1.92;;;;;;;16.67;57.72;99063.94;5047433;27;99749;-69
2022/09/27 06:03:28;;;;;;;5.47;1.90;;;;;;;16.75;57.61;99053.41;5054001;27;98884;-69
2022/09/27 06:06:02;;;;;;;3.03;1.67;;;;;;;16.65;58.07;99058.72;5054056;27;96900;-68
2022/09/27 06:08:28;;;;;;;3.53;1.77;;;;;;;16.75;57.89;99050.75;5054780;27;96666;-69
2022/09/27 06:11:03;;;;;;;2.78;1.58;;;;;;;16.80;58.07;99048.56;5048709;27;98034;-68
2022/09/27 06:13:30;;;;;;;3.03;1.60;;;;;;;16.73;58.26;99052.72;5048144;27;99418;-69
2022/09/27 06:15:57;;;;;;;4.10;2.10;;;;;;;16.66;58.50;99054.25;5053734;27;97448;-68
2022/09/27 06:18:23;;;;;;;3.50;1.52;;;;;;;16.72;58.44;99048.38;5050121;27;96920;-69
2022/09/27 06:20:50;;;;;;;3.53;1.77;;;;;;;16.72;58.63;99051.88;5048493;27;101086;-68
2022/09/27 06:23:18;;;;;;;2.13;1.50;;;;;;;16.96;57.50;99050.69;5048800;27;98911;-69
2022/09/27 06:25:46;;;;;;;2.58;1.52;;;;;;;16.86;57.80;99050.69;5066702;27;96854;-68
2022/09/27 06:28:14;;;;;;;2.10;1.60;;;;;;;16.94;57.66;99056.16;5054578;27;96912;-68
2022/09/27 06:30:42;;;;;;;1.58;1.40;;;;;;;16.93;58.06;99053.66;5050295;27;99085;-70
2022/09/27 06:33:13;;;;;;;1.85;1.60;;;;;;;16.58;58.75;99057.53;5048533;27;99256;-69
2022/09/27 06:35:44;;;;;;;2.17;1.60;;;;;;;16.57;59.12;99058.50;5042101;27;97442;-69
2022/09/27 06:38:12;;;;;;;4.18;1.50;;;;;;;16.74;58.45;99051.72;5050573;27;96986;-68
2022/09/27 06:40:39;;;;;;;1.90;1.55;;;;;;;16.86;58.34;99052.50;5050888;27;98953;-69
2022/09/27 06:43:08;;;;;;;4.20;1.70;;;;;;;16.71;58.38;99054.69;5051136;27;98939;-68
2022/09/27 06:45:38;;;;;;;2.95;1.70;;;;;;;17.01;57.79;99059.13;5044501;27;97197;-70
2022/09/27 06:48:05;;;;;;;4.05;1.58;;;;;;;17.01;58.07;99051.97;5051344;27;96887;-68
2022/09/27 06:50:35;;;;;;;2.63;1.40;;;;;;;17.15;57.43;99053.41;5049797;27;99046;-67
2022/09/27 06:53:05;;;;;;;3.40;1.83;;;;;;;17.11;58.26;99057.34;5050643;27;99243;-69
2022/09/27 06:55:32;;;;;;;4.47;1.67;;;;;;;17.14;57.66;99057.91;5051184;27;97030;-68
2022/09/27 07:00:52;;;;;;;4.03;1.45;;;;;;;16.75;58.97;99056.09;5053472;27;97066;-69
2022/09/27 07:03:21;;;;;;;2.88;1.35;;;;;;;16.69;58.43;99065.47;5046445;27;98896;-70
2022/09/27 07:05:55;;;;;;;2.80;1.63;;;;;;;16.84;58.73;99060.63;5053599;27;96819;-69
2022/09/27 07:08:27;;;;;;;2.35;1.80;;;;;;;16.78;58.66;99057.66;5046994;27;96940;-69
2022/09/27 07:11:01;;;;;;;4.45;1.48;;;;;;;16.88;58.62;99059.38;5053884;27;101293;-68
2022/09/27 07:13:30;;;;;;;5.40;1.83;;;;;;;16.96;58.25;99059.53;5053983;27;99590;-70
2022/09/27 07:15:58;;;;;;;3.60;1.48;;;;;;;16.85;59.04;99061.47;5053363;27;96713;-68
2022/09/27 07:18:24;;;;;;;5.60;1.90;;;;;;;16.88;59.21;99062.03;5053924;27;97045;-68
2022/09/27 07:20:51;;;;;;;4.55;1.75;;;;;;;16.82;58.55;99062.56;5050163;27;99307;-68
2022/09/27 07:23:18;;;;;;;2.75;1.77;;;;;;;16.98;58.39;99060.25;5053070;27;99265;-69
2022/09/27 07:25:46;;;;;;;2.85;1.88;;;;;;;16.83;58.80;99064.28;5064926;27;98483;-68
2022/09/27 07:28:15;;;;;;;2.17;1.58;;;;;;;16.90;58.17;99054.75;5053740;27;96930;-69
2022/09/27 07:30:41;;;;;;;2.25;1.95;;;;;;;16.78;59.26;99073.66;5053430;27;99255;-68
2022/09/27 07:33:09;;;;;;;2.13;1.40;;;;;;;17.13;58.44;99066.06;5052746;27;99387;-68
2022/09/27 07:35:40;;;;;;;3.33;1.92;;;;;;;16.96;59.04;99075.56;5053296;27;97021;-68
2022/09/27 07:38:12;;;;;;;3.10;2.00;;;;;;;16.86;59.31;99063.16;5052379;27;96759;-70
2022/09/27 07:40:38;;;;;;;5.00;1.70;;;;;;;16.92;59.37;99066.13;5052678;27;98868;-69
2022/09/27 07:43:05;;;;;;;3.10;1.83;;;;;;;17.05;58.97;99069.41;5052713;27;99216;-72
2022/09/27 07:45:37;;;;;;;4.88;1.77;;;;;;;16.88;59.54;99061.19;5052552;27;96756;-69
2022/09/27 07:48:06;;;;;;;3.20;1.95;;;;;;;17.21;58.65;99060.03;5046762;27;96883;-69
2022/09/27 07:50:37;;;;;;;12.85;1.75;;;;;;;17.22;58.56;99064.38;5049191;27;100754;-68
2022/09/27 07:53:03;;;;;;;6.30;1.60;;;;;;;17.32;57.93;99057.25;5052908;27;101198;-70
2022/09/27 07:55:30;;;;;;;2.25;2.00;;;;;;;17.20;58.30;99061.84;5052874;27;96925;-69
2022/09/27 07:58:07;;;;;;;5.03;1.73;;;;;;;17.25;58.08;99061.47;5053427;27;96639;-71
2022/09/27 08:00:37;;;;;;;4.28;1.52;;;;;;;17.20;58.18;99063.69;5053020;27;98490;-69
2022/09/27 08:03:07;;;;;;;4.65;1.88;;;;;;;17.11;58.73;99057.34;5036737;27;99126;-69
2022/09/27 08:05:37;;;;;;;4.10;1.90;;;;;;;17.15;58.77;99064.09;5048836;27;96948;-70
2022/09/27 08:08:07;;;;;;;4.70;1.80;;;;;;;17.22;57.98;99067.91;5046847;27;97402;-69
2022/09/27 08:10:34;;;;;;;2.20;1.70;;;;;;;17.42;58.00;99066.13;5050277;27;97497;-70
2022/09/27 08:13:02;;;;;;;2.38;2.05;;;;;;;17.14;58.81;99063.25;5051222;27;97413;-71
2022/09/27 08:15:30;;;;;;;4.15;2.70;;;;;;;17.18;58.94;99079.84;5051118;27;97207;-70
2022/09/27 08:17:57;;;;;;;5.75;1.90;;;;;;;17.26;58.78;99073.84;5050281;27;96954;-69
2022/09/27 08:20:26;;;;;;;1.60;1.38;;;;;;;17.38;58.38;99073.56;5046191;27;97753;-70
2022/09/27 08:23:05;;;;;;;3.58;1.52;;;;;;;17.45;58.16;99065.84;5051210;27;97593;-70
2022/09/27 08:25:31;;;;;;;1.85;1.35;;;;;;;17.27;58.46;99072.81;5043358;27;96740;-70
2022/09/27 08:28:03;;;;;;;3.97;1.90;;;;;;;17.19;58.88;99070.00;5044195;27;96828;-70
2022/09/27 08:30:32;;;;;;;2.50;1.63;;;;;;;17.22;58.83;99069.72;5044285;27;97373;-69
2022/09/27 08:33:02;;;;;;;13.45;1.92;;;;;;;17.22;58.83;99075.06;5042645;27;98763;-69
2022/09/27 08:35:32;;;;;;;15.98;2.17;;;;;;;17.30;58.41;99072.56;5047778;27;96764;-69
2022/09/27 08:38:06;;;;;;;4.75;1.85;;;;;;;17.45;58.02;99071.19;5042728;27;96918;-69
2022/09/27 08:40:46;;;;;;;38.47;3.97;;;;;;;17.61;57.86;99076.84;5046815;27;98146;-69
2022/09/27 08:43:24;;;;;;;38.20;3.50;;;;;;;17.64;57.54;99071.25;5047062;27;99182;-69
2022/09/27 08:46:07;;;;;;;39.10;2.40;;;;;;;17.81;56.98;99078.56;5047428;27;97186;-69
2022/09/27 08:48:41;;;;;;;41.17;3.45;;;;;;;17.77;57.36;99079.84;5043119;27;96859;-69
2022/09/27 08:51:13;;;;;;;47.70;3.10;;;;;;;17.89;57.02;99081.38;5046375;27;98893;-69
2022/09/27 08:53:49;;;;;;;23.90;2.38;;;;;;;17.87;57.35;99079.81;5048447;27;99385;-69
2022/09/27 08:56:20;;;;;;;33.53;2.03;;;;;;;17.52;57.83;99083.81;5045395;27;96732;-69
2022/09/27 08:58:53;;;;;;;45.35;4.35;;;;;;;17.68;57.13;99086.00;5044699;27;98456;-70
2022/09/27 09:01:22;;;;;;;9.57;2.08;;;;;;;17.80;57.33;99084.88;5043478;27;99963;-70
2022/09/27 09:03:51;;;;;;;24.63;2.08;;;;;;;17.93;56.88;99082.78;5047118;27;99076;-69
2022/09/27 09:06:24;;;;;;;9.60;1.60;;;;;;;17.85;57.80;99089.81;5049346;27;97475;-69
2022/09/27 09:09:02;;;;;;;5.93;1.70;;;;;;;17.88;57.06;99065.47;5051104;27;96855;-69
2022/09/27 09:14:47;;;;;;;1.55;1.40;;;;;;;17.56;57.48;99084.41;5048909;27;96997;-68
2022/09/27 09:17:27;;;;;;;2.67;1.75;;;;;;;17.55;57.87;99077.38;5051524;27;96814;-69
2022/09/27 09:20:12;;;;;;;1.90;1.42;;;;;;;17.79;57.49;99077.00;5046051;27;96837;-69
2022/09/27 09:23:02;;;;;;;6.78;1.90;;;;;;;17.88;57.34;99078.84;5046505;27;99208;-70
2022/09/27 09:25:40;;;;;;;1.63;1.30;;;;;;;17.82;57.27;99079.41;5047047;27;100438;-69
2022/09/27 09:28:21;;;;;;;2.10;1.90;;;;;;;18.13;56.82;99070.25;5050908;27;96835;-70
2022/09/27 09:31:01;;;;;;;3.63;1.67;;;;;;;17.91;57.25;99078.56;5044483;27;96951;-69
2022/09/27 09:33:37;;;;;;;2.67;1.45;;;;;;;18.08;56.65;99071.66;5043789;27;99440;-69
2022/09/27 09:36:26;;;;;;;4.05;1.90;;;;;;;18.31;55.70;99075.72;5044693;27;98268;-69
2022/09/27 09:38:58;;;;;;;2.25;1.70;;;;;;;18.57;55.27;99071.47;5046749;27;98240;-69
2022/09/27 09:41:30;;;;;;;2.72;1.63;;;;;;;18.40;55.78;99079.34;5047005;27;96779;-69
2022/09/27 09:44:01;;;;;;;38.63;4.15;;;;;;;18.69;54.64;99081.00;5047589;27;98929;-71
2022/09/27 09:46:34;;;;;;;5.25;1.88;;;;;;;18.70;54.96;99079.16;5043076;27;97667;-69
2022/09/27 09:49:12;;;;;;;15.25;2.20;;;;;;;18.64;54.98;99077.91;5046687;27;97118;-69
2022/09/27 09:51:44;;;;;;;3.42;1.65;;;;;;;18.29;55.76;99077.69;5050539;27;97195;-69
2022/09/27 09:54:22;;;;;;;1.67;1.40;;;;;;;18.50;55.24;99075.69;5048796;27;100966;-70
2022/09/27 09:56:56;;;;;;;2.90;1.55;;;;;;;18.36;55.84;99077.97;5046005;27;98955;-70
2022/09/27 09:59:30;;;;;;;4.13;2.35;;;;;;;18.31;55.76;99081.06;5044850;27;97241;-70
2022/09/27 10:02:09;;;;;;;1.90;1.30;;;;;;;18.42;55.16;99066.69;5047315;27;96776;-69
2022/09/27 10:04:36;;;;;;;3.78;2.33;;;;;;;18.64;54.44;99066.38;5046575;27;97498;-70
2022/09/27 10:07:04;;;;;;;2.70;1.80;;;;;;;18.64;54.97;99072.53;5043282;27;98187;-70
2022/09/27 10:09:35;;;;;;;2.05;1.50;;;;;;;19.01;54.16;99063.69;5048957;27;97202;-69
2022/09/27 10:12:05;;;;;;;6.45;1.70;;;;;;;19.15;53.64;99062.34;5049091;27;96940;-70
2022/09/27 10:14:33;;;;;;;5.38;1.55;;;;;;;18.99;53.78;99061.16;5047845;27;97664;-69
2022/09/27 10:17:05;;;;;;;5.85;1.77;;;;;;;19.05;53.61;99054.34;5051905;27;99279;-70
2022/09/27 10:19:38;;;;;;;2.88;1.60;;;;;;;19.41;52.48;99049.94;5047039;27;96804;-69
2022/09/27 10:22:17;;;;;;;5.78;1.77;;;;;;;19.75;51.83;99050.13;5053153;27;97223;-69
2022/09/27 10:24:56;;;;;;;2.33;1.83;;;;;;;19.95;51.16;99056.19;5045157;27;98999;-69
2022/09/27 10:27:25;;;;;;;1.67;1.45;;;;;;;19.82;51.71;99060.06;5044923;27;97711;-70
2022/09/27 10:29:56;;;;;;;4.72;2.03;;;;;;;19.46;50.99;99056.53;5044512;27;96778;-69
2022/09/27 10:32:29;;;;;;;6.72;1.80;;;;;;;19.04;52.16;99058.03;5047395;27;96878;-69
2022/09/27 10:35:20;;;;;;;5.03;1.63;;;;;;;19.27;52.46;99053.13;5046662;27;97982;-69
2022/09/27 10:37:49;;;;;;;2.88;2.05;;;;;;;18.95;52.91;99056.25;5045622;27;98765;-71
2022/09/27 10:40:34;;;;;;;4.93;2.35;;;;;;;18.84;53.72;99051.91;5049128;27;96770;-70
2022/09/27 10:43:26;;;;;;;2.97;1.73;;;;;;;19.01;53.15;99058.34;5049324;27;96722;-70
2022/09/27 10:46:00;;;;;;;7.10;2.03;;;;;;;18.97;53.14;99046.25;5048328;27;99832;-69
2022/09/27 10:48:26;;;;;;;2.80;1.75;;;;;;;19.03;52.67;99045.66;5048090;27;98786;-70
2022/09/27 10:51:00;;;;;;;5.30;2.13;;;;;;;19.09;52.17;99050.41;5048223;27;96732;-69
2022/09/27 10:53:30;;;;;;;2.38;1.63;;;;;;;19.20;52.19;99052.88;5050520;27;96731;-70
2022/09/27 10:56:05;;;;;;;3.55;1.38;;;;;;;19.30;52.17;99056.31;5049362;27;99407;-70
2022/09/27 10:58:37;;;;;;;2.22;1.75;;;;;;;19.61;51.71;99039.94;5049943;27;99000;-70
2022/09/27 11:01:06;;;;;;;3.85;2.00;;;;;;;19.39;51.79;99050.06;5051749;27;97205;-70
2022/09/27 11:03:36;;;;;;;2.20;2.00;;;;;;;19.15;52.87;99055.16;5049336;27;97077;-70
2022/09/27 11:06:19;;;;;;;3.28;1.85;;;;;;;19.00;54.33;99059.31;5049336;27;98916;-70
2022/09/27 11:08:47;;;;;;;4.30;1.92;;;;;;;18.83;54.57;99046.72;5045503;27;97608;-71
2022/09/27 11:11:27;;;;;;;8.30;2.00;;;;;;;18.79;55.39;99059.53;5051682;27;97161;-70
2022/09/27 11:14:06;;;;;;;3.08;1.80;;;;;;;18.60;55.44;99052.44;5049448;27;96754;-70
2022/09/27 11:16:53;;;;;;;3.58;1.83;;;;;;;18.75;55.87;99051.97;5051110;27;99881;-70
2022/09/27 11:19:30;;;;;;;;;;;;;;;18.58;56.79;99056.22;5047747;27;102108;-71
2022/09/27 11:22:11;;;;;;;4.93;2.20;;;;;;;18.68;56.99;99057.91;5043506;27;96808;-70
2022/09/27 11:24:52;;;;;;;4.13;2.15;;;;;;;18.73;56.14;99048.59;5044824;27;98077;-69
2022/09/27 11:27:34;;;;;;;5.18;2.03;;;;;;;18.87;55.26;99048.09;5040013;27;98322;-69
2022/09/27 11:30:09;;;;;;;4.18;1.65;;;;;;;18.89;56.04;99051.50;5041249;27;98960;-69
2022/09/27 11:32:54;;;;;;;3.70;1.70;;;;;;;18.98;55.05;99053.25;5047346;27;96735;-71
2022/09/27 11:35:32;;;;;;;4.60;1.80;;;;;;;18.91;55.94;99060.19;5048196;27;96773;-69
2022/09/27 11:38:10;;;;;;;4.95;2.17;;;;;;;19.04;55.36;99063.38;5046188;27;97503;-69
2022/09/27 11:40:59;;;;;;;3.75;2.10;;;;;;;18.95;55.92;99058.94;5044955;27;99304;-70
2022/09/27 11:43:42;;;;;;;8.85;5.47;;;;;;;18.84;56.85;99085.88;5047651;27;97043;-70
2022/09/27 11:46:22;;;;;;;6.22;1.70;;;;;;;18.01;55.75;99065.19;5045923;27;96837;-70
2022/09/27 11:49:09;;;;;;;3.33;0.70;;;;;;;17.05;58.60;99085.44;5048249;27;97767;-70
2022/09/27 11:51:53;;;;;;;;;;;;;;;15.97;59.61;99091.22;5045887;27;97897;-69
2022/09/27 11:54:38;;;;;;;2.28;0.60;;;;;;;15.53;62.13;99095.75;5048963;27;97377;-69
2022/09/27 11:57:17;;;;;;;7.13;0.75;;;;;;;15.75;61.90;99091.34;5046220;27;97196;-69
2022/09/27 12:00:09;;;;;;;2.42;0.63;;;;;;;15.36;62.38;99096.22;5043066;27;98999;-69
2022/09/27 12:02:57;;;;;;;0.85;0.50;;;;;;;15.42;63.11;99100.22;5027583;27;101674;-70
2022/09/27 12:05:30;;;;;;;2.47;0.73;;;;;;;15.83;62.37;99100.34;5048300;27;96741;-69